Time;durP1;ratioP1;P1;durP2;ratioP2;P2;SDS_P1;SDS_P2;PMS_P1;PMS_P2;Temp;Humidity;BMP_temperature;BMP_pressure;BME280_temperature;BME280_humidity;BME280_pressure;Samples;Min_cycle;Max_cycle;Signal;HPM_P1;HPM_P2
2024/03/30 00:01:40;;;;;;;;;;;17.60;63.80;;;;;;5000937;28;1347;-71
2024/03/30 00:04:05;;;;;;;;;;;17.60;63.80;;;;;;5001262;28;1421;-70
2024/03/30 00:06:31;;;;;;;;;;;17.60;63.80;;;;;;5000722;28;1716;-70
2024/03/30 00:08:56;;;;;;;;;;;17.60;63.80;;;;;;5035755;28;1345;-70
2024/03/30 00:11:22;;;;;;;;;;;17.60;63.90;;;;;;5003086;28;1340;-69
2024/03/30 00:13:47;;;;;;;;;;;17.60;63.80;;;;;;5034335;28;1906;-69
2024/03/30 00:16:13;;;;;;;;;;;17.60;63.90;;;;;;5002584;28;1396;-69
2024/03/30 00:18:39;;;;;;;;;;;17.60;63.90;;;;;;5001917;28;1714;-70
2024/03/30 00:21:04;;;;;;;;;;;17.60;63.90;;;;;;5000627;28;1280;-69
2024/03/30 00:23:30;;;;;;;;;;;17.60;63.90;;;;;;5033214;28;1436;-69
2024/03/30 00:25:55;;;;;;;;;;;17.60;63.90;;;;;;5001408;28;1301;-69
2024/03/30 00:28:21;;;;;;;;;;;17.60;63.90;;;;;;5018143;28;1372;-70
2024/03/30 00:30:47;;;;;;;;;;;17.60;64.10;;;;;;5029182;28;1671;-69
2024/03/30 00:33:13;;;;;;;;;;;17.60;63.90;;;;;;4999480;28;1906;-69
2024/03/30 00:35:38;;;;;;;;;;;17.60;63.90;;;;;;5000207;28;1292;-69
2024/03/30 00:38:04;;;;;;;;;;;17.60;63.90;;;;;;5030328;28;1134;-69
2024/03/30 00:40:29;;;;;;;;;;;17.60;63.90;;;;;;4998870;28;1228;-69
2024/03/30 00:42:55;;;;;;;;;;;17.60;63.90;;;;;;5033225;28;959;-69
2024/03/30 00:45:20;;;;;;;;;;;17.60;63.90;;;;;;5030084;28;1316;-69
2024/03/30 00:47:46;;;;;;;;;;;17.60;64.00;;;;;;4999273;28;1133;-70
2024/03/30 00:50:11;;;;;;;;;;;17.60;64.00;;;;;;4998076;28;1538;-71
2024/03/30 00:52:37;;;;;;;;;;;17.60;64.00;;;;;;5003042;28;1906;-70
2024/03/30 00:55:04;;;;;;;;;;;17.60;64.00;;;;;;4998052;28;1309;-70
2024/03/30 00:57:29;;;;;;;;;;;17.60;64.00;;;;;;5027882;28;1313;-70
2024/03/30 00:59:55;;;;;;;;;;;17.60;64.00;;;;;;5029184;28;1347;-72
2024/03/30 01:02:20;;;;;;;;;;;17.60;64.00;;;;;;5031245;28;1211;-71
2024/03/30 01:04:45;;;;;;;;;;;17.60;64.00;;;;;;4999618;28;1363;-71
2024/03/30 01:07:11;;;;;;;;;;;17.50;63.90;;;;;;5032669;28;1590;-70
2024/03/30 01:09:37;;;;;;;;;;;17.50;64.00;;;;;;5000562;28;952;-71
2024/03/30 01:12:02;;;;;;;;;;;17.50;64.00;;;;;;4999554;28;1172;-71
2024/03/30 01:14:30;;;;;;;;;;;17.60;64.00;;;;;;5031277;28;1902;-71
2024/03/30 01:16:56;;;;;;;;;;;17.60;64.00;;;;;;5017188;28;1362;-71
2024/03/30 01:19:21;;;;;;;;;;;17.50;64.00;;;;;;5034436;28;1588;-69
2024/03/30 01:21:47;;;;;;;;;;;17.50;64.00;;;;;;4999390;28;1350;-69
2024/03/30 01:24:13;;;;;;;;;;;17.60;64.00;;;;;;4998372;28;1529;-70
2024/03/30 01:26:40;;;;;;;;;;;17.50;64.00;;;;;;4995706;28;1566;-68
2024/03/30 01:29:06;;;;;;;;;;;17.50;64.00;;;;;;5033710;28;1742;-70
2024/03/30 01:31:31;;;;;;;;;;;17.50;64.00;;;;;;5034209;28;1277;-69
2024/03/30 01:33:57;;;;;;;;;;;17.50;64.00;;;;;;4997059;28;1942;-71
2024/03/30 01:36:23;;;;;;;;;;;17.50;64.00;;;;;;4997012;28;1452;-68
2024/03/30 01:38:48;;;;;;;;;;;17.50;64.00;;;;;;5030773;28;1432;-69
2024/03/30 01:41:13;;;;;;;;;;;17.60;64.00;;;;;;5031192;28;1492;-69
2024/03/30 01:43:39;;;;;;;;;;;17.50;64.00;;;;;;5002064;28;1516;-71
2024/03/30 01:46:05;;;;;;;;;;;17.50;64.00;;;;;;5004290;28;1457;-71
2024/03/30 01:48:30;;;;;;;;;;;17.60;64.10;;;;;;5003074;28;1726;-70
2024/03/30 01:50:56;;;;;;;;;;;17.50;64.00;;;;;;5033699;28;1651;-71
2024/03/30 01:53:22;;;;;;;;;;;17.50;64.00;;;;;;5035440;28;1957;-71
2024/03/30 01:55:48;;;;;;;;;;;17.50;64.00;;;;;;5000295;28;1484;-69
2024/03/30 01:58:15;;;;;;;;;;;17.50;64.00;;;;;;5033664;28;1606;-69
2024/03/30 02:00:41;;;;;;;;;;;17.50;64.00;;;;;;5034995;28;1381;-69
2024/03/30 02:03:06;;;;;;;;;;;17.50;64.00;;;;;;5035772;28;1671;-70
2024/03/30 02:05:32;;;;;;;;;;;17.50;64.00;;;;;;5034676;28;1360;-70
2024/03/30 02:08:01;;;;;;;;;;;17.50;64.00;;;;;;5034836;28;1699;-69
2024/03/30 02:10:27;;;;;;;;;;;17.50;64.00;;;;;;5037188;28;1182;-70
2024/03/30 02:12:52;;;;;;;;;;;17.50;64.00;;;;;;5018728;28;1959;-69
2024/03/30 02:15:18;;;;;;;;;;;17.50;64.10;;;;;;5036910;28;1315;-69
2024/03/30 02:17:43;;;;;;;;;;;17.50;64.10;;;;;;5001797;28;1575;-69
2024/03/30 02:20:09;;;;;;;;;;;17.50;64.10;;;;;;5002061;28;1455;-71
2024/03/30 02:22:34;;;;;;;;;;;17.50;64.10;;;;;;5036369;28;1387;-70
2024/03/30 02:25:00;;;;;;;;;;;17.50;64.10;;;;;;4999941;28;1529;-69
2024/03/30 02:27:25;;;;;;;;;;;17.50;64.10;;;;;;5003232;28;1630;-69
2024/03/30 02:29:51;;;;;;;;;;;17.50;64.10;;;;;;5000949;28;1463;-69
2024/03/30 02:32:17;;;;;;;;;;;17.50;64.10;;;;;;5035793;28;1973;-69
2024/03/30 02:34:42;;;;;;;;;;;17.50;64.80;;;;;;5034940;28;1554;-69
2024/03/30 02:37:08;;;;;;;;;;;17.50;64.10;;;;;;5034996;28;1614;-69
2024/03/30 02:39:33;;;;;;;;;;;17.50;64.10;;;;;;5031536;28;1672;-70
2024/03/30 02:41:59;;;;;;;;;;;17.50;64.10;;;;;;5035436;28;1279;-70
2024/03/30 02:44:24;;;;;;;;;;;17.50;64.10;;;;;;5035762;28;1537;-69
2024/03/30 02:46:50;;;;;;;;;;;17.50;64.10;;;;;;5002046;28;1619;-70
2024/03/30 02:49:15;;;;;;;;;;;17.50;64.10;;;;;;5034339;28;1477;-69
2024/03/30 02:51:41;;;;;;;;;;;17.50;64.10;;;;;;5000240;28;1192;-70
2024/03/30 02:54:06;;;;;;;;;;;17.50;64.10;;;;;;5002284;28;1906;-70
2024/03/30 02:56:32;;;;;;;;;;;17.50;64.10;;;;;;5008408;28;1292;-69
2024/03/30 02:58:58;;;;;;;;;;;17.50;64.10;;;;;;5003377;28;1319;-69
2024/03/30 03:01:23;;;;;;;;;;;17.50;64.10;;;;;;5000709;28;1514;-69
2024/03/30 03:03:49;;;;;;;;;;;17.50;64.10;;;;;;4999044;28;1441;-69
2024/03/30 03:06:14;;;;;;;;;;;17.50;64.10;;;;;;5001634;28;1480;-69
2024/03/30 03:08:40;;;;;;;;;;;17.50;64.10;;;;;;5003828;28;1450;-69
2024/03/30 03:11:05;;;;;;;;;;;17.50;64.20;;;;;;5001684;28;1267;-69
2024/03/30 03:13:31;;;;;;;;;;;17.50;64.10;;;;;;5038672;28;1971;-71
2024/03/30 03:15:56;;;;;;;;;;;17.50;64.10;;;;;;5001772;28;1289;-71
2024/03/30 03:18:21;;;;;;;;;;;17.50;64.10;;;;;;5034293;28;1474;-71
2024/03/30 03:20:47;;;;;;;;;;;17.50;64.20;;;;;;5015320;28;1286;-71
2024/03/30 03:23:12;;;;;;;;;;;17.50;64.20;;;;;;5004306;28;994;-70
2024/03/30 03:25:38;;;;;;;;;;;17.50;64.20;;;;;;4998866;28;1326;-70
2024/03/30 03:28:03;;;;;;;;;;;17.50;64.20;;;;;;5002423;28;1182;-71
2024/03/30 03:30:31;;;;;;;;;;;17.50;64.20;;;;;;5001754;28;1089;-71
2024/03/30 03:32:56;;;;;;;;;;;17.50;64.20;;;;;;4999619;28;1906;-71
2024/03/30 03:35:22;;;;;;;;;;;17.50;64.20;;;;;;5000557;28;1491;-71
2024/03/30 03:37:47;;;;;;;;;;;17.50;64.20;;;;;;5003038;28;1563;-71
2024/03/30 03:40:13;;;;;;;;;;;17.50;64.20;;;;;;4999429;28;1342;-72
2024/03/30 03:42:38;;;;;;;;;;;17.50;64.20;;;;;;4998925;28;1474;-69
2024/03/30 03:45:04;;;;;;;;;;;17.50;64.20;;;;;;5033645;28;1275;-69
2024/03/30 03:47:29;;;;;;;;;;;17.50;64.20;;;;;;4999294;28;1650;-69
2024/03/30 03:49:54;;;;;;;;;;;17.50;64.20;;;;;;4996107;28;1531;-70
2024/03/30 03:52:20;;;;;;;;;;;17.50;64.20;;;;;;5002136;28;1959;-70
2024/03/30 03:54:45;;;;;;;;;;;17.50;64.20;;;;;;5001792;28;1546;-72
2024/03/30 03:57:11;;;;;;;;;;;17.50;64.20;;;;;;5000955;28;1125;-70
2024/03/30 03:59:36;;;;;;;;;;;17.50;64.90;;;;;;5001046;28;1681;-70
2024/03/30 04:02:02;;;;;;;;;;;17.50;64.20;;;;;;5001317;28;1551;-71
2024/03/30 04:04:27;;;;;;;;;;;17.50;64.20;;;;;;5030870;28;1508;-71
2024/03/30 04:06:53;;;;;;;;;;;17.50;64.20;;;;;;5032210;28;1602;-71
2024/03/30 04:09:18;;;;;;;;;;;17.50;64.20;;;;;;4999580;28;1451;-71
2024/03/30 04:11:44;;;;;;;;;;;17.50;64.30;;;;;;5001948;28;1384;-71
2024/03/30 04:14:09;;;;;;;;;;;17.50;64.20;;;;;;5000370;28;1973;-71
2024/03/30 04:16:34;;;;;;;;;;;17.50;64.20;;;;;;5033426;28;1665;-71
2024/03/30 04:19:00;;;;;;;;;;;17.50;64.30;;;;;;5032207;28;1467;-71
2024/03/30 04:21:27;;;;;;;;;;;17.50;64.20;;;;;;5001210;28;1246;-71
2024/03/30 04:23:52;;;;;;;;;;;17.50;64.20;;;;;;5032869;28;1446;-69
2024/03/30 04:26:18;;;;;;;;;;;17.50;64.20;;;;;;5001457;28;1516;-69
2024/03/30 04:28:44;;;;;;;;;;;17.50;64.30;;;;;;5003635;28;1394;-69
2024/03/30 04:31:10;;;;;;;;;;;17.50;64.30;;;;;;4998650;28;1493;-69
2024/03/30 04:33:35;;;;;;;;;;;17.50;64.20;;;;;;5003154;28;1954;-69
2024/03/30 04:36:01;;;;;;;;;;;17.50;64.30;;;;;;5001038;28;1441;-71
2024/03/30 04:38:27;;;;;;;;;;;17.50;64.30;;;;;;5032371;28;1561;-71
2024/03/30 04:41:05;;;;;;;;;;;17.50;64.30;;;;;;4998231;28;1464;-71
2024/03/30 04:43:31;;;;;;;;;;;17.50;64.30;;;;;;4997721;28;1551;-69
2024/03/30 04:45:57;;;;;;;;;;;17.50;64.30;;;;;;4998200;28;1436;-69
2024/03/30 04:48:26;;;;;;;;;;;17.50;64.30;;;;;;5030606;28;1435;-70
2024/03/30 04:50:52;;;;;;;;;;;17.50;64.40;;;;;;5033236;28;1610;-70
2024/03/30 04:53:18;;;;;;;;;;;17.50;64.30;;;;;;5031768;28;1960;-69
2024/03/30 04:55:53;;;;;;;;;;;17.50;64.30;;;;;;4999873;28;1532;-70
2024/03/30 04:58:19;;;;;;;;;;;17.50;64.30;;;;;;5000688;28;1503;-70
2024/03/30 05:00:45;;;;;;;;;;;17.50;64.30;;;;;;5001424;28;1489;-70
2024/03/30 05:03:10;;;;;;;;;;;17.50;64.30;;;;;;5000791;28;1596;-69
2024/03/30 05:05:36;;;;;;;;;;;17.50;64.30;;;;;;5031343;28;1712;-70
2024/03/30 05:08:01;;;;;;;;;;;17.50;64.30;;;;;;5031953;28;1198;-70
2024/03/30 05:10:27;;;;;;;;;;;17.50;64.30;;;;;;5031166;28;1528;-70
2024/03/30 05:12:52;;;;;;;;;;;17.50;64.30;;;;;;5032110;28;1973;-70
2024/03/30 05:15:18;;;;;;;;;;;17.50;64.30;;;;;;5002382;28;1458;-70
2024/03/30 05:17:44;;;;;;;;;;;17.50;64.30;;;;;;4997611;28;1227;-70
2024/03/30 05:22:53;;;;;;;;;;;17.50;64.10;;;;;;5024512;28;1372;-70
2024/03/30 05:25:19;;;;;;;;;;;17.60;64.10;;;;;;4999989;28;1526;-70
2024/03/30 05:27:44;;;;;;;;;;;17.60;64.00;;;;;;5046266;28;1496;-70
2024/03/30 05:30:10;;;;;;;;;;;17.60;64.00;;;;;;4999780;28;1143;-70
2024/03/30 05:32:36;;;;;;;;;;;17.60;63.80;;;;;;4998807;28;1911;-70
2024/03/30 05:35:01;;;;;;;;;;;17.60;63.80;;;;;;5015180;28;1308;-70
2024/03/30 05:37:26;;;;;;;;;;;17.70;63.70;;;;;;5030802;28;1476;-70
2024/03/30 05:39:52;;;;;;;;;;;17.70;63.60;;;;;;4999721;28;1555;-70
2024/03/30 05:42:17;;;;;;;;;;;17.70;63.60;;;;;;5016037;28;1517;-72
2024/03/30 05:44:47;;;;;;;;;;;17.70;63.50;;;;;;5028759;28;1411;-70
2024/03/30 05:47:12;;;;;;;;;;;17.70;63.50;;;;;;5000124;28;1396;-71
2024/03/30 05:49:37;;;;;;;;;;;17.80;63.40;;;;;;5000653;28;1526;-71
2024/03/30 05:52:03;;;;;;;;;;;17.80;63.40;;;;;;4999961;28;1439;-71
2024/03/30 05:54:28;;;;;;;;;;;17.70;63.20;;;;;;4998967;28;1902;-71
2024/03/30 05:56:54;;;;;;;;;;;17.80;63.20;;;;;;4997600;28;1398;-70
2024/03/30 05:59:19;;;;;;;;;;;17.80;63.20;;;;;;5030185;28;976;-71
2024/03/30 06:01:45;;;;;;;;;;;17.80;63.20;;;;;;5000094;28;1261;-69
2024/03/30 06:04:10;;;;;;;;;;;17.80;63.20;;;;;;5030928;28;944;-71
2024/03/30 06:06:36;;;;;;;;;;;17.80;63.10;;;;;;4999086;28;1329;-71
2024/03/30 06:09:01;;;;;;;;;;;17.80;63.10;;;;;;5030688;28;1114;-70
2024/03/30 06:11:28;;;;;;;;;;;17.80;63.00;;;;;;4999156;28;1216;-69
2024/03/30 06:13:53;;;;;;;;;;;17.80;63.00;;;;;;4998369;28;1905;-70
2024/03/30 06:16:21;;;;;;;;;;;17.80;63.00;;;;;;4999437;28;1452;-71
2024/03/30 06:18:46;;;;;;;;;;;17.80;63.00;;;;;;5032012;28;1303;-71
2024/03/30 06:21:12;;;;;;;;;;;17.90;63.00;;;;;;5020012;28;1959;-67
2024/03/30 06:23:37;;;;;;;;;;;17.90;63.00;;;;;;4999526;28;1376;-67
2024/03/30 06:26:02;;;;;;;;;;;17.90;62.90;;;;;;5001070;28;1471;-68
2024/03/30 06:28:28;;;;;;;;;;;17.90;62.90;;;;;;5000056;28;1149;-68
2024/03/30 06:30:55;;;;;;;;;;;17.90;62.90;;;;;;5001111;28;1666;-71
2024/03/30 06:33:20;;;;;;;;;;;17.90;62.90;;;;;;5033489;28;1926;-70
2024/03/30 06:35:52;;;;;;;;;;;17.90;62.90;;;;;;5001546;28;1464;-72
2024/03/30 06:38:17;;;;;;;;;;;17.90;62.80;;;;;;5008702;28;1724;-69
2024/03/30 06:43:42;;;;;;;;;;;17.90;62.80;;;;;;4997074;28;1322;-70
2024/03/30 06:46:08;;;;;;;;;;;17.90;62.70;;;;;;5047540;28;1538;-70
2024/03/30 06:48:33;;;;;;;;;;;17.90;62.80;;;;;;5032964;28;1355;-70
2024/03/30 06:50:59;;;;;;;;;;;17.90;62.70;;;;;;4998943;28;888;-70
2024/03/30 06:53:24;;;;;;;;;;;17.90;63.50;;;;;;5033678;28;1898;-71
2024/03/30 06:55:49;;;;;;;;;;;17.90;62.70;;;;;;5001793;28;1316;-71
2024/03/30 06:58:15;;;;;;;;;;;18.00;62.80;;;;;;5003921;28;1527;-71
2024/03/30 07:00:42;;;;;;;;;;;17.90;62.70;;;;;;5002630;28;1805;-71
2024/03/30 07:03:07;;;;;;;;;;;17.90;62.70;;;;;;5032963;28;1279;-71
2024/03/30 07:05:32;;;;;;;;;;;17.90;62.70;;;;;;4999071;28;1435;-70
2024/03/30 07:07:58;;;;;;;;;;;18.00;62.70;;;;;;5003043;28;1511;-71
2024/03/30 07:10:23;;;;;;;;;;;17.90;62.70;;;;;;5002203;28;1597;-71
2024/03/30 07:12:50;;;;;;;;;;;17.90;62.60;;;;;;5004176;28;1926;-71
2024/03/30 07:15:16;;;;;;;;;;;17.90;62.70;;;;;;5001228;28;1634;-70
2024/03/30 07:17:41;;;;;;;;;;;17.90;62.70;;;;;;5000697;28;1427;-70
2024/03/30 07:20:07;;;;;;;;;;;17.90;62.70;;;;;;5000326;28;1228;-71
2024/03/30 07:22:32;;;;;;;;;;;17.90;62.70;;;;;;5001474;28;1586;-70
2024/03/30 07:24:57;;;;;;;;;;;17.90;62.70;;;;;;4999942;28;1631;-69
2024/03/30 07:27:23;;;;;;;;;;;17.90;62.70;;;;;;5032547;28;1556;-70
2024/03/30 07:29:49;;;;;;;;;;;17.90;62.70;;;;;;5000420;28;1273;-70
2024/03/30 07:32:15;;;;;;;;;;;17.90;62.70;;;;;;5031726;28;1489;-70
2024/03/30 07:34:47;;;;;;;;;;;17.90;62.80;;;;;;5034232;28;1973;-69
2024/03/30 07:37:13;;;;;;;;;;;17.90;62.80;;;;;;4998240;28;1475;-70
2024/03/30 07:39:41;;;;;;;;;;;17.90;62.80;;;;;;5035235;28;1667;-69
2024/03/30 07:42:07;;;;;;;;;;;17.90;62.80;;;;;;5021364;28;1431;-73
2024/03/30 07:44:36;;;;;;;;;;;17.90;62.80;;;;;;5002444;28;1433;-72
2024/03/30 07:47:03;;;;;;;;;;;17.90;62.90;;;;;;5002013;28;1373;-74
2024/03/30 07:49:28;;;;;;;;;;;17.90;62.90;;;;;;4999987;28;1420;-74
2024/03/30 07:51:54;;;;;;;;;;;17.90;62.90;;;;;;5020363;28;1376;-69
2024/03/30 07:54:19;;;;;;;;;;;17.90;62.90;;;;;;5001227;28;1899;-72
2024/03/30 07:56:59;;;;;;;;;;;17.90;62.90;;;;;;5001442;28;1299;-70
2024/03/30 07:59:24;;;;;;;;;;;17.90;62.90;;;;;;5034250;28;2328;-70
2024/03/30 08:01:50;;;;;;;;;;;17.90;62.90;;;;;;5033957;28;1253;-71
2024/03/30 08:04:15;;;;;;;;;;;17.90;62.80;;;;;;4999148;28;2235;-70
2024/03/30 08:06:53;;;;;;;;;;;17.90;62.80;;;;;;5033854;28;1852;-70
2024/03/30 08:09:19;;;;;;;;;;;17.90;62.80;;;;;;5000675;28;1275;-70
2024/03/30 08:11:44;;;;;;;;;;;17.90;62.80;;;;;;5030738;28;2369;-70
2024/03/30 08:14:10;;;;;;;;;;;17.90;62.80;;;;;;5001162;28;1906;-70
2024/03/30 08:16:35;;;;;;;;;;;17.90;62.70;;;;;;5000878;28;1710;-70
2024/03/30 08:19:03;;;;;;;;;;;17.90;62.70;;;;;;5034398;28;1445;-70
2024/03/30 08:21:30;;;;;;;;;;;17.90;62.70;;;;;;5001371;28;1458;-70
2024/03/30 08:23:55;;;;;;;;;;;17.90;62.70;;;;;;5033365;28;887;-70
2024/03/30 08:26:21;;;;;;;;;;;18.00;62.80;;;;;;5006975;28;1605;-70
2024/03/30 08:28:46;;;;;;;;;;;18.00;62.70;;;;;;5030278;28;1336;-70
2024/03/30 08:31:12;;;;;;;;;;;17.90;62.70;;;;;;5016854;28;1228;-70
2024/03/30 08:33:37;;;;;;;;;;;18.00;62.70;;;;;;5032049;28;1973;-70
2024/03/30 08:36:03;;;;;;;;;;;18.00;62.70;;;;;;4999748;28;1305;-70
2024/03/30 08:38:28;;;;;;;;;;;18.00;62.70;;;;;;4999936;28;1070;-71
2024/03/30 08:40:54;;;;;;;;;;;18.00;62.70;;;;;;5001984;28;987;-71
2024/03/30 08:43:19;;;;;;;;;;;18.00;62.70;;;;;;5000190;28;2272;-70
2024/03/30 08:45:45;;;;;;;;;;;18.00;62.60;;;;;;5001432;28;1281;-71
2024/03/30 08:48:11;;;;;;;;;;;18.00;62.60;;;;;;4998498;28;1280;-71
2024/03/30 08:50:37;;;;;;;;;;;18.00;62.60;;;;;;5031630;28;1185;-71
2024/03/30 08:53:02;;;;;;;;;;;18.00;62.50;;;;;;4999056;28;1899;-72
2024/03/30 08:55:28;;;;;;;;;;;18.00;62.50;;;;;;5031940;28;1404;-72
2024/03/30 08:57:53;;;;;;;;;;;18.00;62.50;;;;;;4999538;28;1562;-70
2024/03/30 09:00:19;;;;;;;;;;;18.00;62.50;;;;;;5032864;28;1535;-70
2024/03/30 09:02:44;;;;;;;;;;;18.00;62.40;;;;;;5000876;28;1516;-70
2024/03/30 09:05:10;;;;;;;;;;;18.00;62.40;;;;;;4999770;28;1277;-71
2024/03/30 09:07:35;;;;;;;;;;;18.10;62.50;;;;;;5031416;28;1595;-71
2024/03/30 09:10:01;;;;;;;;;;;18.00;62.40;;;;;;4998583;28;1522;-70
2024/03/30 09:12:26;;;;;;;;;;;18.10;62.40;;;;;;4997980;28;1296;-70
2024/03/30 09:14:52;;;;;;;;;;;18.10;62.40;;;;;;4997231;28;1898;-70
2024/03/30 09:17:17;;;;;;;;;;;18.10;62.40;;;;;;4999072;28;1636;-70
2024/03/30 09:19:42;;;;;;;;;;;18.10;62.40;;;;;;5001834;28;1579;-69
2024/03/30 09:22:08;;;;;;;;;;;18.10;62.40;;;;;;5001751;28;1300;-69
2024/03/30 09:24:33;;;;;;;;;;;18.10;62.40;;;;;;4997275;28;1432;-69
2024/03/30 09:26:59;;;;;;;;;;;18.10;62.40;;;;;;5029694;28;1445;-70
2024/03/30 09:29:24;;;;;;;;;;;18.10;62.40;;;;;;5000572;28;1466;-70
2024/03/30 09:31:50;;;;;;;;;;;18.10;62.40;;;;;;5029411;28;1477;-70
2024/03/30 09:34:15;;;;;;;;;;;18.10;62.40;;;;;;4999008;28;1894;-69
2024/03/30 09:36:41;;;;;;;;;;;18.10;62.40;;;;;;4999185;28;1592;-70
2024/03/30 09:39:06;;;;;;;;;;;18.10;62.40;;;;;;4997221;28;1629;-69
2024/03/30 09:41:42;;;;;;;;;;;18.10;62.40;;;;;;5005793;28;1372;-70
2024/03/30 09:44:07;;;;;;;;;;;18.10;62.40;;;;;;5017374;28;1475;-69
2024/03/30 09:46:33;;;;;;;;;;;18.10;62.50;;;;;;5000677;28;1358;-70
2024/03/30 09:48:59;;;;;;;;;;;18.00;62.40;;;;;;5031084;28;1642;-69
2024/03/30 09:51:24;;;;;;;;;;;18.00;62.40;;;;;;5000444;28;1485;-69
2024/03/30 09:53:50;;;;;;;;;;;18.00;62.50;;;;;;4998924;28;1968;-70
2024/03/30 09:56:15;;;;;;;;;;;18.00;62.50;;;;;;5031628;28;1587;-69
2024/03/30 09:58:41;;;;;;;;;;;18.00;62.50;;;;;;5028774;28;1847;-69
2024/03/30 10:01:07;;;;;;;;;;;18.00;62.60;;;;;;4998772;28;1378;-70
2024/03/30 10:03:32;;;;;;;;;;;18.00;62.50;;;;;;4998951;28;1645;-69
2024/03/30 10:05:58;;;;;;;;;;;18.00;62.60;;;;;;5002059;28;1591;-69
2024/03/30 10:08:24;;;;;;;;;;;18.00;62.60;;;;;;5032422;28;1495;-70
2024/03/30 10:10:53;;;;;;;;;;;18.00;62.60;;;;;;5001237;28;1216;-70
2024/03/30 10:13:26;;;;;;;;;;;18.00;62.80;;;;;;5023201;28;1953;-70
2024/03/30 10:15:52;;;;;;;;;;;18.00;62.70;;;;;;5037518;28;1483;-69
2024/03/30 10:18:17;;;;;;;;;;;18.00;62.70;;;;;;5034313;28;1678;-69
2024/03/30 10:20:43;;;;;;;;;;;18.00;62.70;;;;;;4999666;28;1839;-69
2024/03/30 10:23:08;;;;;;;;;;;18.00;62.80;;;;;;5019957;28;1612;-69
2024/03/30 10:25:34;;;;;;;;;;;17.90;62.70;;;;;;5020058;28;1369;-69
2024/03/30 10:28:00;;;;;;;;;;;17.90;62.70;;;;;;5033491;28;1480;-69
2024/03/30 10:30:25;;;;;;;;;;;18.00;62.80;;;;;;5035650;28;1482;-70
2024/03/30 10:32:54;;;;;;;;;;;17.90;62.80;;;;;;5033333;28;1898;-70
2024/03/30 10:35:21;;;;;;;;;;;17.90;62.80;;;;;;5002464;28;1469;-70
2024/03/30 10:37:49;;;;;;;;;;;18.00;62.90;;;;;;5004670;28;1565;-70
2024/03/30 10:40:18;;;;;;;;;;;17.90;62.90;;;;;;5032151;28;1557;-70
2024/03/30 10:42:43;;;;;;;;;;;17.90;62.90;;;;;;5002593;28;1430;-69
2024/03/30 10:45:09;;;;;;;;;;;17.90;62.90;;;;;;5031216;28;1640;-69
2024/03/30 10:47:34;;;;;;;;;;;17.90;62.90;;;;;;5001536;28;1592;-70
2024/03/30 10:50:00;;;;;;;;;;;17.90;62.90;;;;;;5034573;28;1383;-70
2024/03/30 10:52:26;;;;;;;;;;;17.90;62.90;;;;;;5031856;28;1372;-70
2024/03/30 10:54:54;;;;;;;;;;;17.90;63.00;;;;;;5034366;28;1894;-69
2024/03/30 10:57:23;;;;;;;;;;;17.90;63.00;;;;;;5001939;28;1574;-70
2024/03/30 10:59:49;;;;;;;;;;;17.90;63.00;;;;;;5001458;28;1701;-70
2024/03/30 11:02:15;;;;;;;;;;;17.90;63.10;;;;;;5034830;28;1475;-70
2024/03/30 11:04:41;;;;;;;;;;;17.90;63.10;;;;;;5020291;28;2013;-70
2024/03/30 11:07:06;;;;;;;;;;;17.90;63.10;;;;;;5032737;28;1329;-70
2024/03/30 11:09:33;;;;;;;;;;;17.90;63.10;;;;;;5032818;28;1519;-69
2024/03/30 11:11:59;;;;;;;;;;;17.90;63.10;;;;;;5032429;28;1432;-70
2024/03/30 11:14:24;;;;;;;;;;;17.90;63.20;;;;;;4999803;28;1962;-70
2024/03/30 11:16:49;;;;;;;;;;;17.90;63.20;;;;;;4999528;28;1260;-70
2024/03/30 11:19:19;;;;;;;;;;;17.80;63.10;;;;;;5031588;28;1485;-70
2024/03/30 11:21:50;;;;;;;;;;;17.90;63.20;;;;;;4999850;28;1105;-70
2024/03/30 11:24:16;;;;;;;;;;;17.80;63.20;;;;;;5030625;28;1596;-70
2024/03/30 11:26:44;;;;;;;;;;;17.90;63.30;;;;;;5003978;28;1552;-70
2024/03/30 11:29:29;;;;;;;;;;;17.90;63.30;;;;;;5018997;28;1311;-70
2024/03/30 11:31:56;;;;;;;;;;;17.80;63.20;;;;;;5002752;28;1249;-70
2024/03/30 11:34:32;;;;;;;;;;;17.80;63.20;;;;;;5031834;28;1902;-69
2024/03/30 11:37:08;;;;;;;;;;;17.80;63.20;;;;;;5018218;28;1478;-69
2024/03/30 11:39:40;;;;;;;;;;;17.80;63.20;;;;;;5031930;28;1454;-69
2024/03/30 11:42:25;;;;;;;;;;;17.80;63.30;;;;;;5031529;28;1898;-69
2024/03/30 11:44:51;;;;;;;;;;;17.80;63.30;;;;;;4996878;28;1266;-70
2024/03/30 11:47:16;;;;;;;;;;;17.80;63.30;;;;;;5036232;28;1681;-69
2024/03/30 11:49:42;;;;;;;;;;;17.80;63.30;;;;;;5001631;28;1413;-69
2024/03/30 11:52:10;;;;;;;;;;;17.80;63.30;;;;;;5002089;28;865;-69
2024/03/30 11:54:35;;;;;;;;;;;17.80;63.40;;;;;;5012307;28;1898;-69
2024/03/30 11:57:01;;;;;;;;;;;17.80;63.40;;;;;;4999999;28;1553;-68
2024/03/30 11:59:27;;;;;;;;;;;17.80;63.40;;;;;;5001977;28;1354;-69
2024/03/30 12:01:53;;;;;;;;;;;17.80;63.40;;;;;;5000060;28;872;-69
2024/03/30 12:04:19;;;;;;;;;;;17.80;63.40;;;;;;5030997;28;972;-69
2024/03/30 12:06:45;;;;;;;;;;;17.80;63.50;;;;;;5000822;28;1304;-70
2024/03/30 12:09:10;;;;;;;;;;;17.80;63.50;;;;;;5034851;28;1037;-69
2024/03/30 12:11:35;;;;;;;;;;;17.80;63.50;;;;;;5031282;28;1485;-69
2024/03/30 12:14:04;;;;;;;;;;;17.80;63.50;;;;;;5029302;28;1965;-69
2024/03/30 12:16:30;;;;;;;;;;;17.80;64.20;;;;;;5017669;28;1478;-69
2024/03/30 12:18:57;;;;;;;;;;;17.80;63.50;;;;;;5031031;28;969;-69
2024/03/30 12:21:22;;;;;;;;;;;17.80;63.50;;;;;;5031107;28;1608;-69
2024/03/30 12:23:48;;;;;;;;;;;17.80;63.50;;;;;;5001102;28;1190;-69
2024/03/30 12:26:13;;;;;;;;;;;17.80;63.50;;;;;;5030829;28;1288;-70
2024/03/30 12:28:39;;;;;;;;;;;17.80;63.50;;;;;;5030755;28;1394;-69
2024/03/30 12:31:04;;;;;;;;;;;17.80;63.60;;;;;;5002180;28;1422;-69
2024/03/30 12:33:30;;;;;;;;;;;17.80;63.60;;;;;;5015582;28;1960;-69
2024/03/30 12:35:55;;;;;;;;;;;17.80;63.60;;;;;;5030821;28;1345;-70
2024/03/30 12:38:22;;;;;;;;;;;17.80;63.60;;;;;;5029116;28;1982;-69
2024/03/30 12:40:47;;;;;;;;;;;17.80;63.70;;;;;;5030921;28;1425;-69
2024/03/30 12:43:13;;;;;;;;;;;17.80;63.60;;;;;;5031231;28;1138;-69
2024/03/30 12:45:39;;;;;;;;;;;17.80;64.40;;;;;;5016072;28;1485;-69
2024/03/30 12:48:04;;;;;;;;;;;17.80;63.70;;;;;;5034362;28;1670;-69
2024/03/30 12:50:30;;;;;;;;;;;17.70;63.60;;;;;;5029893;28;1495;-69
2024/03/30 12:52:56;;;;;;;;;;;17.80;63.70;;;;;;5032910;28;1973;-69
2024/03/30 12:55:21;;;;;;;;;;;17.80;63.70;;;;;;5031032;28;1511;-70
2024/03/30 12:57:47;;;;;;;;;;;17.80;63.70;;;;;;4998653;28;1465;-70
2024/03/30 13:00:16;;;;;;;;;;;17.70;63.60;;;;;;5002293;28;1375;-70
2024/03/30 13:02:53;;;;;;;;;;;17.70;63.60;;;;;;4999092;28;1379;-70
2024/03/30 13:05:19;;;;;;;;;;;17.70;63.70;;;;;;5030505;28;1505;-70
2024/03/30 13:07:45;;;;;;;;;;;17.70;63.70;;;;;;5031850;28;1749;-71
2024/03/30 13:10:10;;;;;;;;;;;17.70;63.70;;;;;;5000247;28;1367;-70
2024/03/30 13:12:36;;;;;;;;;;;17.70;63.70;;;;;;5029653;28;1383;-70
2024/03/30 13:15:02;;;;;;;;;;;17.70;63.70;;;;;;4998551;28;1906;-69
2024/03/30 13:17:27;;;;;;;;;;;17.70;63.80;;;;;;5032538;28;1406;-69
2024/03/30 13:19:53;;;;;;;;;;;17.70;63.80;;;;;;5036071;28;1291;-70
2024/03/30 13:22:18;;;;;;;;;;;17.70;63.80;;;;;;5032497;28;1762;-70
2024/03/30 13:24:44;;;;;;;;;;;17.70;63.80;;;;;;4996291;28;1200;-69
2024/03/30 13:27:09;;;;;;;;;;;17.70;63.80;;;;;;5013953;28;1291;-69
2024/03/30 13:29:39;;;;;;;;;;;17.70;63.80;;;;;;5000387;28;1519;-69
2024/03/30 13:32:05;;;;;;;;;;;17.70;64.50;;;;;;5029797;28;1308;-70
2024/03/30 13:34:31;;;;;;;;;;;17.70;63.80;;;;;;5031704;28;1902;-70
2024/03/30 13:36:56;;;;;;;;;;;17.70;63.80;;;;;;5030431;28;1380;-70
2024/03/30 13:39:22;;;;;;;;;;;17.70;63.80;;;;;;4997666;28;1454;-70
2024/03/30 13:41:47;;;;;;;;;;;17.70;63.80;;;;;;5032479;28;1467;-70
2024/03/30 13:44:13;;;;;;;;;;;17.70;63.90;;;;;;5000983;28;1399;-70
2024/03/30 13:46:38;;;;;;;;;;;17.70;63.80;;;;;;4999965;28;1309;-70
2024/03/30 13:49:04;;;;;;;;;;;17.70;63.80;;;;;;5016590;28;1361;-70
2024/03/30 13:51:29;;;;;;;;;;;17.70;63.90;;;;;;4999078;28;1208;-70
2024/03/30 13:53:55;;;;;;;;;;;17.70;63.90;;;;;;5001027;28;1898;-70
2024/03/30 13:56:20;;;;;;;;;;;17.70;63.90;;;;;;4998846;28;1277;-70
2024/03/30 13:58:46;;;;;;;;;;;17.70;63.90;;;;;;4997996;28;1297;-71
2024/03/30 14:01:12;;;;;;;;;;;17.70;63.90;;;;;;5027765;28;1144;-70
2024/03/30 14:03:37;;;;;;;;;;;17.70;63.90;;;;;;5014200;28;1650;-70
2024/03/30 14:06:04;;;;;;;;;;;17.70;63.90;;;;;;4999634;28;1304;-70
2024/03/30 14:08:29;;;;;;;;;;;17.70;64.00;;;;;;4996155;28;1461;-70
2024/03/30 14:10:55;;;;;;;;;;;17.70;63.90;;;;;;5001121;28;1321;-69
2024/03/30 14:13:20;;;;;;;;;;;17.70;63.90;;;;;;5000907;28;1970;-69
2024/03/30 14:15:46;;;;;;;;;;;17.70;64.00;;;;;;4997151;28;1533;-70
2024/03/30 14:18:11;;;;;;;;;;;17.70;62.80;;;;;;4997925;28;1325;-69
2024/03/30 14:20:37;;;;;;;;;;;17.80;62.60;;;;;;4999041;28;1535;-69
2024/03/30 14:23:02;;;;;;;;;;;17.90;61.00;;;;;;5030681;28;1538;-69
2024/03/30 14:25:28;;;;;;;;;;;18.00;61.50;;;;;;4997834;28;1473;-69
2024/03/30 14:27:53;;;;;;;;;;;18.00;62.00;;;;;;4997499;28;1137;-69
2024/03/30 14:30:19;;;;;;;;;;;18.00;61.60;;;;;;5007179;28;1570;-69